Portada
METAR-TAF:

METAR-TAF

Aeroports :

Porto Alegre, Rio Grande do Sul, Brasil

latitud: 30-00S, longitud: 051-11W, altitud: 3 m

Observació

L'informe es va fer fa 1 hora i 59 minuts, a les 23:00 UTC
Vent 11 kt del Est/Sud-Est
Temperatura 24°C
Humitat 78%
Pressió 1013 hPa
Visibilitat 10 km o més
Escasses núvols a una alçada de 3000 ft

METAR: SBPA 052300Z 12011KT 9999 FEW030 24/20 Q1013

Hora: 22:59 (00:59 UTC)

Pronòstic

L'informe es va fer fa 3 hores i 59 minuts, a les 21:00 UTC
Pronòstic vàlid del 06 a les 00 UTC al 06 a les 24 UTC
Vent 7 kt del Sud-Est
Visibilitat 10 km o més
Núvols disperses a una alçada de 2000 ft
Evolucionant progressivament
l' 06 a les 06 UTC al 06 a les 08 UTC
Vent 5 kt del Sud-Est
Cel ennuvolat a una alçada de 2000 ft
Evolucionant progressivament
l' 06 a les 16 UTC al 06 a les 18 UTC
Núvols disperses a una alçada de 2000 ft

TAF: SBPA 052100Z 0600/0624 14007KT 9999 SCT020 TN21/0609Z TX29/0617Z BECMG 0606/0608 14005KT BKN020 BECMG 0616/0618 SCT020 RMK PDZ

Observacions i pronòstics meteorològics de més de 4000 aeroports (METAR i TAF).

Les estacions disponibles són els punts grocs i vermells al mapa.

Posi el ratolí al punt desitjat per veure el nom de l'estació.

Feu clic per veure les observacions i els pronòstics meteorològics.

Per canviar el mapa: feu clic els botons verds amb una creu de color negre per apropar; al botó verd amb un guió per allunyar la imatge; o en les fletxes verdes per a mapes adjacents.


METAR-TAF: